Time;durP1;ratioP1;P1;durP2;ratioP2;P2;SDS_P1;SDS_P2;PMS_P1;PMS_P2;Temp;Humidity;BMP_temperature;BMP_pressure;BME280_temperature;BME280_humidity;BME280_pressure;Samples;Min_cycle;Max_cycle;Signal;HPM_P1;HPM_P2
2022/05/04 00:01:44;;;;;;;;;;;21.70;43.40;;;;;;476332;250;1263;-39
2022/05/04 00:03:45;;;;;;;;;;;21.70;43.50;;;;;;476758;248;1251;-39
2022/05/04 00:05:48;;;;;;;;;;;21.70;43.40;;;;;;476473;248;2129;-39
2022/05/04 00:07:48;;;;;;;;;;;21.70;43.50;;;;;;476397;248;1525;-39
2022/05/04 00:09:49;;;;;;;;;;;21.70;43.50;;;;;;476538;248;955;-39
2022/05/04 00:11:51;;;;;;;;;;;21.80;43.40;;;;;;476380;248;1238;-39
2022/05/04 00:13:52;;;;;;;;;;;21.80;43.40;;;;;;476691;248;1176;-39
2022/05/04 00:15:53;;;;;;;;;;;21.80;43.40;;;;;;476394;248;1194;-39
2022/05/04 00:17:55;;;;;;;;;;;21.70;43.50;;;;;;476550;248;1215;-39
2022/05/04 00:19:56;;;;;;;;;;;21.70;43.50;;;;;;476389;248;1137;-39
2022/05/04 00:21:57;;;;;;;;;;;21.70;43.50;;;;;;476595;248;1240;-39
2022/05/04 00:23:59;;;;;;;;;;;21.80;43.50;;;;;;476563;248;2203;-39
2022/05/04 00:26:00;;;;;;;;;;;21.80;43.50;;;;;;476318;248;1327;-39
2022/05/04 00:28:02;;;;;;;;;;;21.70;43.60;;;;;;476371;248;1058;-39
2022/05/04 00:30:02;;;;;;;;;;;21.70;43.60;;;;;;476340;250;2185;-39
2022/05/04 00:32:04;;;;;;;;;;;21.70;43.60;;;;;;476350;248;1118;-39
2022/05/04 00:34:05;;;;;;;;;;;21.70;43.70;;;;;;476757;248;1228;-39
2022/05/04 00:36:06;;;;;;;;;;;21.70;43.60;;;;;;476427;249;1055;-39
2022/05/04 00:38:08;;;;;;;;;;;21.70;43.50;;;;;;476825;248;1090;-39
2022/05/04 00:40:09;;;;;;;;;;;21.70;43.50;;;;;;476528;248;1078;-39
2022/05/04 00:42:10;;;;;;;;;;;21.70;43.50;;;;;;476354;248;1302;-39
2022/05/04 00:44:12;;;;;;;;;;;21.70;43.50;;;;;;476368;248;2133;-39
2022/05/04 00:46:13;;;;;;;;;;;21.80;43.50;;;;;;476476;248;1088;-39
2022/05/04 00:48:15;;;;;;;;;;;21.80;43.40;;;;;;476539;248;1158;-39
2022/05/04 00:50:16;;;;;;;;;;;21.80;43.40;;;;;;476818;248;1247;-39
2022/05/04 00:52:17;;;;;;;;;;;21.70;43.50;;;;;;476574;248;1455;-39
2022/05/04 00:54:18;;;;;;;;;;;21.70;43.60;;;;;;476387;248;1010;-39
2022/05/04 00:56:20;;;;;;;;;;;21.70;43.60;;;;;;476513;248;1298;-39
2022/05/04 01:00:40;;;;;;;;;;;21.70;43.60;;;;;;476342;250;1889;-39
2022/05/04 01:02:41;;;;;;;;;;;21.70;43.60;;;;;;476393;248;1290;-39
2022/05/04 01:04:43;;;;;;;;;;;21.70;43.70;;;;;;476337;248;2208;-39
2022/05/04 01:06:44;;;;;;;;;;;21.60;43.70;;;;;;476452;248;1066;-39
2022/05/04 01:08:45;;;;;;;;;;;21.70;43.60;;;;;;476335;248;1110;-39
2022/05/04 01:10:47;;;;;;;;;;;21.70;43.60;;;;;;476407;248;1126;-39
2022/05/04 01:12:48;;;;;;;;;;;21.70;43.60;;;;;;476762;248;1304;-39
2022/05/04 01:14:49;;;;;;;;;;;21.70;43.50;;;;;;476431;248;1346;-39
2022/05/04 01:16:51;;;;;;;;;;;21.70;43.60;;;;;;476469;248;1073;-39
2022/05/04 01:18:52;;;;;;;;;;;21.70;43.60;;;;;;476268;250;2122;-39
2022/05/04 01:20:53;;;;;;;;;;;21.70;43.50;;;;;;476300;248;1104;-39
2022/05/04 01:22:55;;;;;;;;;;;21.70;43.60;;;;;;476382;248;1233;-39
2022/05/04 01:24:56;;;;;;;;;;;21.70;43.60;;;;;;476393;249;2125;-39
2022/05/04 01:26:57;;;;;;;;;;;21.80;43.50;;;;;;476527;248;1197;-39
2022/05/04 01:28:59;;;;;;;;;;;21.70;43.60;;;;;;476473;248;1084;-39
2022/05/04 01:31:00;;;;;;;;;;;21.70;43.70;;;;;;476388;248;1097;-39
2022/05/04 01:33:01;;;;;;;;;;;21.80;43.60;;;;;;476256;248;1240;-39
2022/05/04 01:35:02;;;;;;;;;;;21.70;43.70;;;;;;476529;248;1094;-39
2022/05/04 01:37:04;;;;;;;;;;;21.60;43.70;;;;;;476343;248;1115;-39
2022/05/04 01:39:05;;;;;;;;;;;21.60;43.70;;;;;;476564;248;1081;-39
2022/05/04 01:42:02;;;;;;;;;;;21.60;43.70;;;;;;476499;248;1277;-39
2022/05/04 01:43:08;;;;;;;;;;;21.70;43.80;;;;;;475150;249;2030;-39
2022/05/04 01:45:09;;;;;;;;;;;21.70;43.70;;;;;;476394;248;2129;-39
2022/05/04 01:47:11;;;;;;;;;;;21.70;43.70;;;;;;476273;248;1068;-39
2022/05/04 01:49:12;;;;;;;;;;;21.70;43.60;;;;;;476591;248;1056;-39
2022/05/04 01:51:13;;;;;;;;;;;21.70;43.60;;;;;;476417;248;1108;-39
2022/05/04 01:53:15;;;;;;;;;;;21.70;43.60;;;;;;476586;248;1218;-39
2022/05/04 01:55:16;;;;;;;;;;;21.70;43.60;;;;;;476349;248;1011;-39
2022/05/04 01:57:17;;;;;;;;;;;21.70;43.50;;;;;;476502;248;1210;-39
2022/05/04 01:59:19;;;;;;;;;;;21.70;43.60;;;;;;476299;248;1065;-39
2022/05/04 02:01:20;;;;;;;;;;;21.70;43.60;;;;;;476279;248;1334;-39
2022/05/04 02:03:21;;;;;;;;;;;21.70;43.50;;;;;;476418;248;1401;-39
2022/05/04 02:05:22;;;;;;;;;;;21.70;43.60;;;;;;476339;248;2141;-39
2022/05/04 02:07:24;;;;;;;;;;;21.70;43.60;;;;;;476373;248;1215;-39
2022/05/04 02:09:27;;;;;;;;;;;21.70;43.60;;;;;;476728;248;1074;-39
2022/05/04 02:11:28;;;;;;;;;;;21.70;43.50;;;;;;476314;250;2449;-39
2022/05/04 02:13:28;;;;;;;;;;;21.70;43.50;;;;;;476374;249;1931;-39
2022/05/04 02:15:29;;;;;;;;;;;21.80;43.60;;;;;;476421;248;958;-39
2022/05/04 02:17:30;;;;;;;;;;;21.70;43.50;;;;;;476380;248;1222;-39
2022/05/04 02:19:32;;;;;;;;;;;21.80;43.60;;;;;;476695;248;1056;-39
2022/05/04 02:21:33;;;;;;;;;;;21.70;43.70;;;;;;476395;248;1013;-39
2022/05/04 02:23:34;;;;;;;;;;;21.70;43.70;;;;;;476442;248;1001;-39
2022/05/04 02:25:36;;;;;;;;;;;21.70;43.70;;;;;;476791;248;2184;-39
2022/05/04 02:27:37;;;;;;;;;;;21.70;43.70;;;;;;476392;248;1236;-39
2022/05/04 02:29:38;;;;;;;;;;;21.70;43.70;;;;;;476408;248;1101;-39
2022/05/04 02:31:40;;;;;;;;;;;21.70;43.70;;;;;;476490;248;1034;-39
2022/05/04 02:33:42;;;;;;;;;;;21.70;43.70;;;;;;476479;248;1068;-39
2022/05/04 02:38:02;;;;;;;;;;;21.70;43.60;;;;;;476368;250;1108;-39
2022/05/04 02:40:03;;;;;;;;;;;21.80;43.60;;;;;;476454;248;1054;-39
2022/05/04 02:42:04;;;;;;;;;;;21.70;43.60;;;;;;476362;248;1199;-39
2022/05/04 02:44:05;;;;;;;;;;;21.70;43.70;;;;;;476500;248;1104;-39
2022/05/04 02:46:07;;;;;;;;;;;21.70;43.70;;;;;;476505;248;2204;-39
2022/05/04 02:48:08;;;;;;;;;;;21.70;43.80;;;;;;476779;248;1051;-39
2022/05/04 02:50:09;;;;;;;;;;;21.70;43.70;;;;;;476414;248;1264;-39
2022/05/04 02:52:11;;;;;;;;;;;21.70;43.60;;;;;;476347;248;1229;-39
2022/05/04 02:54:12;;;;;;;;;;;21.70;43.60;;;;;;476352;248;1056;-39
2022/05/04 02:56:15;;;;;;;;;;;21.70;43.70;;;;;;476467;248;1075;-39
2022/05/04 02:58:15;;;;;;;;;;;21.70;43.70;;;;;;476554;248;1529;-39
2022/05/04 03:00:16;;;;;;;;;;;21.70;43.70;;;;;;476808;248;1055;-39
2022/05/04 03:02:30;;;;;;;;;;;21.70;43.70;;;;;;476548;248;1192;-39
2022/05/04 03:04:31;;;;;;;;;;;21.70;43.80;;;;;;476447;248;1192;-39
2022/05/04 03:06:32;;;;;;;;;;;21.70;43.70;;;;;;476474;248;2179;-39
2022/05/04 03:08:33;;;;;;;;;;;21.70;43.70;;;;;;476342;248;1105;-39
2022/05/04 03:11:54;;;;;;;;;;;21.60;43.70;;;;;;476762;248;1243;-39
2022/05/04 03:12:36;;;;;;;;;;;21.60;43.80;;;;;;475257;250;1618;-39
2022/05/04 03:14:38;;;;;;;;;;;21.70;43.80;;;;;;476561;248;1043;-39
2022/05/04 03:16:39;;;;;;;;;;;21.70;43.80;;;;;;476335;248;1285;-39
2022/05/04 03:18:40;;;;;;;;;;;21.70;43.70;;;;;;476649;248;1097;-39
2022/05/04 03:20:42;;;;;;;;;;;21.70;43.70;;;;;;476403;248;1240;-39
2022/05/04 03:22:43;;;;;;;;;;;21.70;43.80;;;;;;476611;249;1169;-39
2022/05/04 03:24:44;;;;;;;;;;;21.70;43.60;;;;;;476569;248;1084;-39
2022/05/04 03:26:46;;;;;;;;;;;21.70;43.70;;;;;;476326;248;2136;-39
2022/05/04 03:28:47;;;;;;;;;;;21.70;43.70;;;;;;476568;248;1242;-39
2022/05/04 03:30:48;;;;;;;;;;;21.70;43.70;;;;;;476553;248;1073;-39
2022/05/04 03:32:50;;;;;;;;;;;21.70;43.70;;;;;;476474;248;1279;-39
2022/05/04 03:34:51;;;;;;;;;;;21.70;43.70;;;;;;476431;249;1046;-39
2022/05/04 03:36:52;;;;;;;;;;;21.70;43.80;;;;;;476643;248;1052;-39
2022/05/04 03:38:54;;;;;;;;;;;21.70;43.70;;;;;;476442;248;1040;-39
2022/05/04 03:40:55;;;;;;;;;;;21.70;43.70;;;;;;476751;248;1183;-39
2022/05/04 03:42:56;;;;;;;;;;;21.70;43.60;;;;;;476337;248;1219;-39
2022/05/04 03:44:57;;;;;;;;;;;21.70;43.60;;;;;;476408;248;1087;-39
2022/05/04 03:46:59;;;;;;;;;;;21.80;43.70;;;;;;476273;248;2132;-39
2022/05/04 03:49:00;;;;;;;;;;;21.70;43.60;;;;;;476673;248;1242;-39
2022/05/04 03:51:02;;;;;;;;;;;21.70;43.70;;;;;;476750;248;1447;-39
2022/05/04 03:53:03;;;;;;;;;;;21.70;43.80;;;;;;476689;248;1126;-39
2022/05/04 03:55:04;;;;;;;;;;;21.70;43.70;;;;;;476486;248;1004;-39
2022/05/04 03:57:05;;;;;;;;;;;21.70;43.80;;;;;;476662;248;1137;-39
2022/05/04 03:59:07;;;;;;;;;;;21.70;43.80;;;;;;476361;248;1234;-39
2022/05/04 04:01:08;;;;;;;;;;;21.70;43.80;;;;;;476368;247;1529;-39
2022/05/04 04:03:09;;;;;;;;;;;21.70;43.70;;;;;;476649;248;1093;-39
2022/05/04 04:05:11;;;;;;;;;;;21.70;43.70;;;;;;476713;248;981;-39
2022/05/04 04:07:12;;;;;;;;;;;21.70;43.60;;;;;;476622;248;2188;-39
2022/05/04 04:09:13;;;;;;;;;;;21.80;43.60;;;;;;476267;248;1110;-39
2022/05/04 04:11:15;;;;;;;;;;;21.70;43.60;;;;;;476235;249;1126;-39
2022/05/04 04:13:16;;;;;;;;;;;21.70;43.60;;;;;;476671;248;1267;-39
2022/05/04 04:15:17;;;;;;;;;;;21.80;43.70;;;;;;476489;248;1051;-39
2022/05/04 04:17:18;;;;;;;;;;;21.70;43.70;;;;;;476243;248;1100;-39
2022/05/04 04:19:20;;;;;;;;;;;21.70;43.70;;;;;;476409;248;1023;-39
2022/05/04 04:23:41;;;;;;;;;;;21.70;43.70;;;;;;476427;249;1102;-39
2022/05/04 04:25:42;;;;;;;;;;;21.70;43.80;;;;;;476740;248;2117;-39
2022/05/04 04:27:43;;;;;;;;;;;21.70;43.70;;;;;;476413;248;1070;-39
2022/05/04 04:29:44;;;;;;;;;;;21.70;43.70;;;;;;476276;248;1318;-39
2022/05/04 04:31:46;;;;;;;;;;;21.70;43.80;;;;;;476261;248;1108;-39
2022/05/04 04:33:47;;;;;;;;;;;21.70;43.80;;;;;;476286;248;1050;-39
2022/05/04 04:35:48;;;;;;;;;;;21.70;43.80;;;;;;476280;248;1163;-39
2022/05/04 04:37:50;;;;;;;;;;;21.70;43.80;;;;;;476270;248;1084;-39
2022/05/04 04:39:51;;;;;;;;;;;21.80;43.70;;;;;;476228;248;1136;-39
2022/05/04 04:41:52;;;;;;;;;;;21.70;43.60;;;;;;476416;248;1036;-39
2022/05/04 04:43:54;;;;;;;;;;;21.80;43.70;;;;;;476335;248;1429;-39
2022/05/04 04:45:55;;;;;;;;;;;21.80;43.60;;;;;;476330;248;2128;-39
2022/05/04 04:47:57;;;;;;;;;;;21.80;43.70;;;;;;476172;248;1301;-39
2022/05/04 04:49:58;;;;;;;;;;;21.70;43.70;;;;;;476334;248;1265;-39
2022/05/04 04:51:59;;;;;;;;;;;21.70;43.70;;;;;;476153;248;1340;-39
2022/05/04 04:54:01;;;;;;;;;;;21.70;43.70;;;;;;476132;248;1237;-39
2022/05/04 04:56:02;;;;;;;;;;;21.70;43.70;;;;;;476230;249;1071;-39
2022/05/04 04:58:03;;;;;;;;;;;21.70;43.80;;;;;;476195;248;1098;-39
2022/05/04 05:00:05;;;;;;;;;;;21.70;43.80;;;;;;476220;250;1176;-39
2022/05/04 05:02:06;;;;;;;;;;;21.70;43.70;;;;;;476131;248;1152;-39
2022/05/04 05:04:07;;;;;;;;;;;21.70;43.70;;;;;;476114;248;1076;-39
2022/05/04 05:06:09;;;;;;;;;;;21.70;43.70;;;;;;476137;248;2192;-39
2022/05/04 05:08:10;;;;;;;;;;;21.80;43.60;;;;;;476179;248;1161;-39
2022/05/04 05:10:11;;;;;;;;;;;21.70;43.70;;;;;;476177;248;1072;-39
2022/05/04 05:12:12;;;;;;;;;;;21.70;43.80;;;;;;476094;248;1093;-39
2022/05/04 05:16:38;;;;;;;;;;;21.60;43.90;;;;;;458234;254;1181;-39
2022/05/04 05:18:39;;;;;;;;;;;21.60;43.80;;;;;;478790;248;1556;-39
2022/05/04 05:20:40;;;;;;;;;;;21.70;43.80;;;;;;478889;249;1115;-39
2022/05/04 05:22:41;;;;;;;;;;;21.70;43.70;;;;;;478783;249;1096;-39
2022/05/04 05:24:43;;;;;;;;;;;21.70;43.70;;;;;;478811;249;1924;-39
2022/05/04 05:26:44;;;;;;;;;;;21.70;43.60;;;;;;478759;249;2178;-39
2022/05/04 05:28:47;;;;;;;;;;;21.80;43.60;;;;;;478843;249;1101;-39
2022/05/04 05:30:47;;;;;;;;;;;21.70;43.60;;;;;;478776;248;2318;-39
2022/05/04 05:32:48;;;;;;;;;;;21.80;43.50;;;;;;478884;249;1096;-39
2022/05/04 05:34:50;;;;;;;;;;;21.80;43.50;;;;;;479104;249;1023;-39
2022/05/04 05:36:50;;;;;;;;;;;21.70;43.50;;;;;;478729;248;1729;-39
2022/05/04 05:38:52;;;;;;;;;;;21.80;43.50;;;;;;478797;249;1104;-39
2022/05/04 05:40:53;;;;;;;;;;;21.80;43.50;;;;;;478733;249;1095;-39
2022/05/04 05:42:54;;;;;;;;;;;21.80;43.50;;;;;;478739;249;1122;-39
2022/05/04 05:44:56;;;;;;;;;;;21.80;43.50;;;;;;478622;249;1296;-39
2022/05/04 05:46:57;;;;;;;;;;;21.80;43.50;;;;;;478551;249;2197;-39
2022/05/04 05:48:58;;;;;;;;;;;21.80;43.50;;;;;;478549;249;1091;-39
2022/05/04 05:51:00;;;;;;;;;;;21.80;43.50;;;;;;478842;249;1039;-39
2022/05/04 05:53:01;;;;;;;;;;;21.80;43.40;;;;;;466170;253;1131;-39
2022/05/04 05:55:03;;;;;;;;;;;21.80;43.50;;;;;;462201;256;1223;-39
2022/05/04 05:57:04;;;;;;;;;;;21.80;43.50;;;;;;466260;253;1145;-39
2022/05/04 05:59:05;;;;;;;;;;;21.80;43.60;;;;;;462227;256;1328;-39
2022/05/04 06:01:07;;;;;;;;;;;21.70;43.50;;;;;;466161;254;1199;-39
2022/05/04 06:03:08;;;;;;;;;;;21.70;43.70;;;;;;462054;256;1116;-39
2022/05/04 06:05:09;;;;;;;;;;;21.70;43.80;;;;;;475909;249;1126;-39
2022/05/04 06:07:11;;;;;;;;;;;21.70;43.80;;;;;;475717;248;2387;-39
2022/05/04 06:09:12;;;;;;;;;;;21.60;44.00;;;;;;475734;248;1065;-39
2022/05/04 06:11:13;;;;;;;;;;;21.60;44.00;;;;;;475794;248;1183;-39
2022/05/04 06:13:14;;;;;;;;;;;21.60;44.00;;;;;;475946;248;1081;-39
2022/05/04 06:15:16;;;;;;;;;;;21.60;44.00;;;;;;476039;248;1141;-39
2022/05/04 06:17:17;;;;;;;;;;;21.50;44.10;;;;;;475804;250;1662;-39
2022/05/04 06:19:18;;;;;;;;;;;21.50;44.10;;;;;;475971;248;1097;-39
2022/05/04 06:21:20;;;;;;;;;;;21.50;44.10;;;;;;475810;248;1265;-39
2022/05/04 06:23:21;;;;;;;;;;;21.50;44.00;;;;;;475845;248;1131;-39
2022/05/04 06:25:22;;;;;;;;;;;21.50;44.00;;;;;;475881;248;1235;-39
2022/05/04 06:27:24;;;;;;;;;;;21.60;44.00;;;;;;475776;248;2130;-39
2022/05/04 06:34:06;;;;;;;;;;;21.60;44.00;;;;;;475615;248;1108;-39
2022/05/04 06:36:05;;;;;;;;;;;21.50;44.10;;;;;;475722;250;1195;-39
2022/05/04 06:38:07;;;;;;;;;;;21.50;44.20;;;;;;475766;248;1185;-39
2022/05/04 06:40:08;;;;;;;;;;;21.50;44.20;;;;;;475768;248;1246;-39
2022/05/04 06:42:09;;;;;;;;;;;21.50;44.30;;;;;;475743;248;1238;-39
2022/05/04 06:44:11;;;;;;;;;;;21.50;44.30;;;;;;475878;248;1109;-39
2022/05/04 06:46:13;;;;;;;;;;;21.40;44.40;;;;;;475692;248;2224;-39
2022/05/04 06:48:13;;;;;;;;;;;21.40;44.40;;;;;;475564;249;1661;-39
2022/05/04 06:50:15;;;;;;;;;;;21.40;44.40;;;;;;475565;248;1072;-39
2022/05/04 06:52:16;;;;;;;;;;;21.40;44.40;;;;;;475633;248;1227;-39
2022/05/04 06:54:17;;;;;;;;;;;21.50;44.30;;;;;;475528;248;1065;-39
2022/05/04 06:56:19;;;;;;;;;;;21.40;44.20;;;;;;475553;248;1220;-39
2022/05/04 06:58:20;;;;;;;;;;;21.50;44.20;;;;;;475711;248;1073;-39
2022/05/04 07:00:21;;;;;;;;;;;21.50;44.10;;;;;;475676;248;1214;-39
2022/05/04 07:02:22;;;;;;;;;;;21.50;44.20;;;;;;475629;248;1288;-39
2022/05/04 07:04:24;;;;;;;;;;;21.50;44.20;;;;;;475413;248;1236;-39
2022/05/04 07:06:25;;;;;;;;;;;21.50;44.30;;;;;;475360;248;2193;-39
2022/05/04 07:08:27;;;;;;;;;;;21.40;44.30;;;;;;475483;248;1069;-39
2022/05/04 07:10:28;;;;;;;;;;;21.40;44.40;;;;;;475461;248;1152;-39
2022/05/04 07:12:29;;;;;;;;;;;21.50;44.50;;;;;;475338;248;1267;-39
2022/05/04 07:14:31;;;;;;;;;;;21.40;44.50;;;;;;475426;248;1239;-39
2022/05/04 07:16:32;;;;;;;;;;;21.30;44.60;;;;;;475366;248;1215;-39
2022/05/04 07:18:33;;;;;;;;;;;21.30;44.70;;;;;;475351;248;1143;-39
2022/05/04 07:20:35;;;;;;;;;;;21.40;44.70;;;;;;475269;248;1066;-39
2022/05/04 07:22:36;;;;;;;;;;;21.30;44.70;;;;;;475519;248;1173;-39
2022/05/04 07:24:37;;;;;;;;;;;21.30;44.80;;;;;;475590;248;1059;-39
2022/05/04 07:26:39;;;;;;;;;;;21.40;44.70;;;;;;475572;248;2196;-39
2022/05/04 07:28:41;;;;;;;;;;;21.40;44.70;;;;;;475508;248;1156;-39
2022/05/04 07:30:42;;;;;;;;;;;21.40;44.60;;;;;;475470;248;1254;-39
2022/05/04 07:32:44;;;;;;;;;;;21.50;44.50;;;;;;475376;248;1197;-39
2022/05/04 07:34:45;;;;;;;;;;;21.50;44.50;;;;;;475077;248;2042;-39
2022/05/04 07:36:46;;;;;;;;;;;21.50;44.50;;;;;;475446;248;1263;-39
2022/05/04 07:38:47;;;;;;;;;;;21.40;44.50;;;;;;475361;248;1073;-39
2022/05/04 07:43:08;;;;;;;;;;;21.40;44.60;;;;;;475220;249;1096;-39
2022/05/04 07:45:11;;;;;;;;;;;21.40;44.70;;;;;;474268;248;1187;-39
2022/05/04 07:47:10;;;;;;;;;;;21.40;44.70;;;;;;473745;250;2204;-39
2022/05/04 07:49:12;;;;;;;;;;;21.30;44.70;;;;;;473946;248;1312;-39
2022/05/04 07:51:13;;;;;;;;;;;21.40;44.80;;;;;;474135;248;1327;-39
2022/05/04 07:53:14;;;;;;;;;;;21.40;44.90;;;;;;474134;248;1232;-39
2022/05/04 07:55:16;;;;;;;;;;;21.30;44.90;;;;;;474062;248;1190;-39
2022/05/04 07:57:17;;;;;;;;;;;21.30;45.10;;;;;;474091;248;1159;-39
2022/05/04 07:59:18;;;;;;;;;;;21.30;45.10;;;;;;474099;248;1212;-39
2022/05/04 08:05:58;;;;;;;;;;;21.30;44.80;;;;;;474129;250;1118;-39
2022/05/04 08:07:59;;;;;;;;;;;21.40;44.70;;;;;;474147;248;2136;-39
2022/05/04 08:10:01;;;;;;;;;;;21.40;44.70;;;;;;474026;249;1125;-39
2022/05/04 08:12:02;;;;;;;;;;;21.40;44.70;;;;;;474027;248;1400;-39
2022/05/04 08:14:04;;;;;;;;;;;21.40;44.70;;;;;;474554;248;1268;-39
2022/05/04 08:16:07;;;;;;;;;;;21.40;44.70;;;;;;475049;248;1190;-39
2022/05/04 08:18:06;;;;;;;;;;;21.50;44.80;;;;;;474954;249;1769;-39
2022/05/04 08:20:08;;;;;;;;;;;21.40;44.70;;;;;;474924;248;953;-39
2022/05/04 08:22:12;;;;;;;;;;;21.40;44.80;;;;;;474418;248;969;-39
2022/05/04 08:24:10;;;;;;;;;;;21.40;44.90;;;;;;474426;250;1847;-39
2022/05/04 08:26:12;;;;;;;;;;;21.30;44.90;;;;;;474619;248;938;-39
2022/05/04 08:28:13;;;;;;;;;;;21.30;45.00;;;;;;474906;248;2211;-39
2022/05/04 08:30:15;;;;;;;;;;;21.30;45.10;;;;;;474455;248;1122;-39
2022/05/04 08:32:16;;;;;;;;;;;21.40;45.00;;;;;;474396;250;1079;-39
2022/05/04 08:34:17;;;;;;;;;;;21.40;45.10;;;;;;474094;248;966;-39
2022/05/04 08:36:18;;;;;;;;;;;21.30;45.10;;;;;;476097;248;849;-39
2022/05/04 08:50:54;;;;;;;;;;;21.40;43.90;;;;;;501547;233;1347;-41
2022/05/04 08:52:55;;;;;;;;;;;21.40;44.80;;;;;;490807;241;1484;-38
2022/05/04 08:54:57;;;;;;;;;;;21.40;44.80;;;;;;490721;240;1146;-39
2022/05/04 08:56:58;;;;;;;;;;;21.30;44.90;;;;;;490636;240;1232;-39
2022/05/04 08:58:59;;;;;;;;;;;21.30;44.90;;;;;;490607;240;1084;-39
2022/05/04 09:01:02;;;;;;;;;;;21.30;45.10;;;;;;490636;240;1108;-38
2022/05/04 09:03:02;;;;;;;;;;;21.30;45.10;;;;;;490774;240;2263;-39
2022/05/04 09:05:03;;;;;;;;;;;21.30;45.20;;;;;;490620;240;1282;-38
2022/05/04 09:07:05;;;;;;;;;;;21.30;45.20;;;;;;490608;240;1163;-39
2022/05/04 09:09:08;;;;;;;;;;;21.30;45.30;;;;;;490640;240;2192;-39
2022/05/04 09:11:08;;;;;;;;;;;21.30;45.30;;;;;;491047;240;2301;-39
2022/05/04 09:13:09;;;;;;;;;;;21.30;45.10;;;;;;491531;240;832;-39
2022/05/04 09:15:11;;;;;;;;;;;21.30;45.20;;;;;;491559;240;954;-39
2022/05/04 09:17:12;;;;;;;;;;;21.30;45.10;;;;;;490973;240;1358;-39
2022/05/04 09:19:13;;;;;;;;;;;21.30;45.10;;;;;;490677;240;1316;-39
2022/05/04 09:21:16;;;;;;;;;;;21.40;45.00;;;;;;489454;242;1551;-39
2022/05/04 09:23:16;;;;;;;;;;;21.40;44.80;;;;;;489424;240;2062;-39
2022/05/04 09:25:18;;;;;;;;;;;21.40;44.80;;;;;;490051;240;1692;-39
2022/05/04 09:27:18;;;;;;;;;;;21.30;44.90;;;;;;490034;240;2123;-39
2022/05/04 09:29:20;;;;;;;;;;;21.40;44.90;;;;;;489973;240;2200;-39
2022/05/04 09:31:21;;;;;;;;;;;21.40;45.00;;;;;;489933;240;1077;-39
2022/05/04 09:33:23;;;;;;;;;;;21.30;45.10;;;;;;490490;240;1089;-39
2022/05/04 09:35:24;;;;;;;;;;;21.30;45.10;;;;;;490002;240;1106;-39
2022/05/04 09:44:54;;;;;;;;;;;21.30;45.10;;;;;;486046;241;1150;-39
2022/05/04 09:46:56;;;;;;;;;;;21.30;45.30;;;;;;490762;240;1162;-39
2022/05/04 09:48:57;;;;;;;;;;;21.20;45.20;;;;;;490583;240;1223;-39
2022/05/04 09:50:58;;;;;;;;;;;21.30;45.20;;;;;;490418;240;2109;-39
2022/05/04 09:53:02;;;;;;;;;;;21.30;45.10;;;;;;489448;241;1379;-39
2022/05/04 09:55:03;;;;;;;;;;;21.40;45.10;;;;;;489465;241;2301;-39
2022/05/04 09:57:03;;;;;;;;;;;21.40;45.00;;;;;;489452;240;2052;-39
2022/05/04 09:59:05;;;;;;;;;;;21.30;45.00;;;;;;489716;240;1157;-39
2022/05/04 10:01:05;;;;;;;;;;;21.40;45.00;;;;;;489755;240;2324;-39
2022/05/04 10:03:07;;;;;;;;;;;21.40;45.00;;;;;;490748;241;1225;-39
2022/05/04 10:05:08;;;;;;;;;;;21.40;45.00;;;;;;490602;241;1295;-39
2022/05/04 10:07:09;;;;;;;;;;;21.40;45.10;;;;;;490624;241;1265;-39
2022/05/04 10:09:11;;;;;;;;;;;21.30;45.00;;;;;;490163;241;1150;-39
2022/05/04 10:11:14;;;;;;;;;;;21.30;45.10;;;;;;489468;241;2109;-39
2022/05/04 10:13:14;;;;;;;;;;;21.30;45.10;;;;;;489528;241;2733;-39
2022/05/04 10:15:15;;;;;;;;;;;21.30;45.20;;;;;;489795;241;1168;-39
2022/05/04 10:17:17;;;;;;;;;;;21.30;45.30;;;;;;490635;241;1338;-39
2022/05/04 10:19:18;;;;;;;;;;;21.30;45.30;;;;;;490728;241;2240;-39
2022/05/04 10:21:19;;;;;;;;;;;21.20;45.30;;;;;;490684;241;1459;-39
2022/05/04 10:23:20;;;;;;;;;;;21.20;45.30;;;;;;490859;241;1160;-38
2022/05/04 10:25:22;;;;;;;;;;;21.30;45.40;;;;;;491055;241;1116;-39
2022/05/04 10:27:25;;;;;;;;;;;21.20;45.40;;;;;;490885;241;1217;-39
2022/05/04 10:31:44;;;;;;;;;;;21.30;45.40;;;;;;490762;241;1128;-39
2022/05/04 10:33:45;;;;;;;;;;;21.30;45.20;;;;;;490874;241;1191;-38
2022/05/04 10:35:47;;;;;;;;;;;21.30;45.20;;;;;;490899;241;1227;-39
2022/05/04 10:37:48;;;;;;;;;;;21.30;45.20;;;;;;490807;241;1445;-39
2022/05/04 10:39:49;;;;;;;;;;;21.30;45.20;;;;;;490703;241;1171;-38
2022/05/04 10:41:51;;;;;;;;;;;21.30;45.20;;;;;;490656;241;1259;-38
2022/05/04 10:43:54;;;;;;;;;;;21.30;45.30;;;;;;490700;241;1079;-38
2022/05/04 10:45:54;;;;;;;;;;;21.30;45.30;;;;;;490649;241;1885;-38
2022/05/04 10:47:55;;;;;;;;;;;21.30;45.30;;;;;;490652;241;1177;-38
2022/05/04 10:49:56;;;;;;;;;;;21.30;45.40;;;;;;490736;241;2187;-39
2022/05/04 10:51:58;;;;;;;;;;;21.30;45.50;;;;;;488878;240;1176;-38
2022/05/04 10:53:59;;;;;;;;;;;21.20;45.60;;;;;;488590;242;1399;-38
2022/05/04 10:56:00;;;;;;;;;;;21.20;45.60;;;;;;488603;242;1105;-38
2022/05/04 10:58:01;;;;;;;;;;;21.20;45.70;;;;;;488707;242;1060;-38
2022/05/04 11:00:04;;;;;;;;;;;21.20;45.70;;;;;;488709;242;1417;-38
2022/05/04 11:02:04;;;;;;;;;;;21.20;45.70;;;;;;488716;242;2289;-38
2022/05/04 11:04:06;;;;;;;;;;;21.30;45.70;;;;;;488698;242;1099;-38
2022/05/04 11:06:07;;;;;;;;;;;21.30;45.60;;;;;;488603;242;1449;-38
2022/05/04 11:08:08;;;;;;;;;;;21.40;45.50;;;;;;488549;242;1252;-38
2022/05/04 11:10:10;;;;;;;;;;;21.30;45.40;;;;;;488754;242;2193;-38
2022/05/04 11:12:11;;;;;;;;;;;21.40;45.50;;;;;;488682;242;1188;-38
2022/05/04 11:14:12;;;;;;;;;;;21.40;45.60;;;;;;488727;242;1373;-38
2022/05/04 11:16:14;;;;;;;;;;;21.40;45.60;;;;;;488620;242;1256;-38
2022/05/04 11:18:15;;;;;;;;;;;21.40;45.60;;;;;;488606;242;1381;-38
2022/05/04 11:20:16;;;;;;;;;;;21.30;45.60;;;;;;488579;242;1260;-38
2022/05/04 11:22:18;;;;;;;;;;;21.30;45.80;;;;;;488527;242;1167;-38
2022/05/04 11:24:19;;;;;;;;;;;21.30;45.80;;;;;;488456;242;1364;-38
2022/05/04 11:26:20;;;;;;;;;;;21.30;45.80;;;;;;488430;242;1693;-38
2022/05/04 11:28:22;;;;;;;;;;;21.30;45.90;;;;;;488620;242;1164;-38
2022/05/04 11:30:23;;;;;;;;;;;21.30;46.00;;;;;;488019;242;2121;-38
2022/05/04 11:32:24;;;;;;;;;;;21.20;46.00;;;;;;487273;242;1331;-38
2022/05/04 11:34:26;;;;;;;;;;;21.30;46.00;;;;;;487167;242;1376;-38
2022/05/04 11:36:27;;;;;;;;;;;21.20;46.00;;;;;;487123;242;1529;-38
2022/05/04 11:38:28;;;;;;;;;;;21.20;46.10;;;;;;487289;242;1223;-38
2022/05/04 11:40:30;;;;;;;;;;;21.20;46.10;;;;;;487259;242;1286;-38
2022/05/04 11:42:31;;;;;;;;;;;21.20;46.10;;;;;;487140;242;1937;-38
2022/05/04 11:44:32;;;;;;;;;;;21.30;46.10;;;;;;487350;242;1353;-38
2022/05/04 11:46:34;;;;;;;;;;;21.30;45.90;;;;;;488559;242;1174;-38
2022/05/04 11:48:35;;;;;;;;;;;21.30;45.80;;;;;;488386;242;1087;-38
2022/05/04 11:50:37;;;;;;;;;;;21.30;45.80;;;;;;488281;242;2190;-38
2022/05/04 11:52:40;;;;;;;;;;;21.40;45.80;;;;;;488414;242;1964;-38
2022/05/04 11:54:40;;;;;;;;;;;21.30;45.80;;;;;;488623;242;1698;-38
2022/05/04 11:56:41;;;;;;;;;;;21.30;46.20;;;;;;488515;242;1177;-38
2022/05/04 11:58:42;;;;;;;;;;;21.30;45.90;;;;;;488333;242;1221;-38
2022/05/04 12:00:44;;;;;;;;;;;21.40;46.00;;;;;;488290;242;1153;-38
2022/05/04 12:02:45;;;;;;;;;;;21.30;46.00;;;;;;488169;242;1131;-38
2022/05/04 12:04:47;;;;;;;;;;;21.30;46.20;;;;;;488102;242;1106;-38
2022/05/04 12:06:48;;;;;;;;;;;21.30;46.10;;;;;;487090;242;1363;-39
2022/05/04 12:08:49;;;;;;;;;;;21.30;46.20;;;;;;486798;242;1328;-39
2022/05/04 12:10:51;;;;;;;;;;;21.30;46.20;;;;;;486879;242;2185;-39
2022/05/04 12:12:52;;;;;;;;;;;21.30;46.20;;;;;;486794;242;1963;-39
2022/05/04 12:14:53;;;;;;;;;;;21.30;46.20;;;;;;487173;242;1345;-39
2022/05/04 12:16:55;;;;;;;;;;;21.30;46.20;;;;;;487055;242;1201;-39
2022/05/04 12:18:58;;;;;;;;;;;21.20;46.30;;;;;;487186;242;1201;-39
2022/05/04 12:20:57;;;;;;;;;;;21.20;46.10;;;;;;487190;242;1533;-39
2022/05/04 12:22:59;;;;;;;;;;;21.30;46.20;;;;;;487337;242;1358;-39
2022/05/04 12:25:00;;;;;;;;;;;21.30;46.20;;;;;;487437;242;1379;-39
2022/05/04 12:27:01;;;;;;;;;;;21.40;46.10;;;;;;487462;242;1198;-39
2022/05/04 12:33:41;;;;;;;;;;;21.30;46.20;;;;;;487132;241;1217;-39
2022/05/04 12:35:43;;;;;;;;;;;21.30;46.20;;;;;;486523;242;1450;-39
2022/05/04 12:37:44;;;;;;;;;;;21.30;46.20;;;;;;487255;242;1332;-39
2022/05/04 12:39:45;;;;;;;;;;;21.30;46.20;;;;;;487276;242;1319;-39
2022/05/04 12:41:47;;;;;;;;;;;21.30;46.20;;;;;;486631;242;1390;-39
2022/05/04 12:43:48;;;;;;;;;;;21.30;46.20;;;;;;487077;242;2425;-39
2022/05/04 12:45:49;;;;;;;;;;;21.30;46.20;;;;;;487273;242;1267;-39